Time;durP1;ratioP1;P1;durP2;ratioP2;P2;SDS_P1;SDS_P2;PMS_P1;PMS_P2;Temp;Humidity;BMP_temperature;BMP_pressure;BME280_temperature;BME280_humidity;BME280_pressure;Samples;Min_cycle;Max_cycle;Signal;HPM_P1;HPM_P2
2021/01/01 00:00:27;;;;;;;17.95;10.60;;;;;;;4.16;100.00;99314.63;5088128;28;20055;-70
2021/01/01 00:03:12;;;;;;;17.45;10.38;;;;;;;4.17;100.00;99318.94;5089167;28;20059;-70
2021/01/01 00:05:56;;;;;;;15.18;11.30;;;;;;;4.21;100.00;99317.69;5088011;28;20122;-71
2021/01/01 00:08:40;;;;;;;15.38;10.50;;;;;;;4.15;100.00;99316.41;5089287;28;20389;-70
2021/01/01 00:11:24;;;;;;;15.80;10.85;;;;;;;4.09;100.00;99316.06;5087874;28;20051;-69
2021/01/01 00:14:12;;;;;;;15.80;11.23;;;;;;;4.05;100.00;99312.03;5089103;28;20047;-70
2021/01/01 00:16:56;;;;;;;16.05;11.30;;;;;;;4.05;100.00;99312.03;5089139;28;20085;-69
2021/01/01 00:19:40;;;;;;;17.05;11.10;;;;;;;4.11;100.00;99312.34;5075896;28;20043;-70
2021/01/01 00:22:24;;;;;;;15.35;10.05;;;;;;;4.09;100.00;99321.34;5075320;28;20492;-70
2021/01/01 00:25:09;;;;;;;14.82;10.13;;;;;;;4.01;100.00;99313.22;5075773;28;20148;-70
2021/01/01 00:27:53;;;;;;;15.63;10.82;;;;;;;3.95;100.00;99313.75;5074028;28;20449;-70
2021/01/01 00:30:37;;;;;;;17.95;10.88;;;;;;;3.97;100.00;99314.47;5075104;28;20055;-70
2021/01/01 00:33:20;;;;;;;13.00;8.60;;;;;;;3.93;100.00;99310.38;5088475;28;20515;-70
2021/01/01 00:36:05;;;;;;;13.07;9.10;;;;;;;3.90;100.00;99313.28;5073939;28;20056;-70
2021/01/01 00:38:51;;;;;;;13.55;10.25;;;;;;;3.91;100.00;99317.59;5074186;28;20094;-70
2021/01/01 00:41:35;;;;;;;13.90;9.35;;;;;;;3.92;100.00;99321.88;5075201;28;20047;-70
2021/01/01 00:44:19;;;;;;;12.02;9.23;;;;;;;3.82;100.00;99313.91;5074154;28;20110;-70
2021/01/01 00:47:03;;;;;;;14.93;10.23;;;;;;;3.84;100.00;99329.63;5073919;28;20052;-69
2021/01/01 00:49:48;;;;;;;15.85;10.30;;;;;;;3.81;100.00;99322.78;5075068;28;20058;-69
2021/01/01 00:52:32;;;;;;;15.98;10.90;;;;;;;3.76;100.00;99324.13;5074964;28;20143;-70
2021/01/01 00:55:16;;;;;;;18.38;12.27;;;;;;;3.67;100.00;99325.69;5074950;28;20128;-70
2021/01/01 00:58:00;;;;;;;16.45;10.35;;;;;;;3.50;100.00;99333.28;5074660;28;20419;-70
2021/01/01 01:00:44;;;;;;;;;;;;;;;3.41;100.00;99334.00;5075276;28;20048;-70
2021/01/01 01:03:28;;;;;;;19.90;12.70;;;;;;;3.37;100.00;99343.13;5073691;28;20423;-70
2021/01/01 01:06:12;;;;;;;19.02;13.30;;;;;;;3.40;100.00;99342.88;5074235;28;20580;-70
2021/01/01 01:08:56;;;;;;;19.17;13.23;;;;;;;3.39;100.00;99347.31;5087949;28;20094;-70
2021/01/01 01:11:40;;;;;;;16.88;9.82;;;;;;;3.24;100.00;99345.88;5074624;28;20047;-70
2021/01/01 01:14:24;;;;;;;14.57;9.60;;;;;;;3.11;100.00;99352.22;5073551;28;20504;-70
2021/01/01 01:17:08;;;;;;;21.40;13.98;;;;;;;3.15;100.00;99359.75;5074143;28;20048;-69
2021/01/01 01:19:52;;;;;;;18.70;13.05;;;;;;;3.23;100.00;99359.19;5074417;28;20047;-70
2021/01/01 01:22:36;;;;;;;15.02;9.60;;;;;;;3.14;100.00;99359.91;5073438;28;20136;-70
2021/01/01 01:25:21;;;;;;;19.08;12.73;;;;;;;3.19;100.00;99365.63;5073536;28;20131;-70
2021/01/01 01:28:05;;;;;;;22.48;13.50;;;;;;;3.13;100.00;99366.13;5073925;28;20043;-70
2021/01/01 01:30:49;;;;;;;19.80;11.65;;;;;;;3.13;100.00;99366.13;5073034;28;20056;-70
2021/01/01 01:33:33;;;;;;;19.13;12.85;;;;;;;3.15;100.00;99369.47;5074000;28;20122;-69
2021/01/01 01:36:17;;;;;;;22.20;13.38;;;;;;;3.03;100.00;99371.25;5074279;28;20047;-70
2021/01/01 01:39:01;;;;;;;23.02;13.75;;;;;;;3.06;100.00;99371.00;5074091;28;20121;-70
2021/01/01 01:41:45;;;;;;;20.50;12.77;;;;;;;3.12;100.00;99380.25;5072642;28;20051;-70
2021/01/01 01:44:29;;;;;;;;;;;;;;;3.10;100.00;99379.50;5074096;28;20055;-70
2021/01/01 01:47:17;;;;;;;10.80;7.47;;;;;;;3.08;100.00;99384.06;5073748;28;19957;-70
2021/01/01 01:50:02;;;;;;;16.52;10.85;;;;;;;3.10;100.00;99396.16;5072798;28;20097;-70
2021/01/01 01:52:47;;;;;;;16.42;11.23;;;;;;;3.08;100.00;99394.59;5073514;28;20097;-69
2021/01/01 01:55:31;;;;;;;16.63;10.98;;;;;;;3.10;100.00;99397.94;5072612;28;20509;-70
2021/01/01 01:58:15;;;;;;;15.45;9.68;;;;;;;3.10;100.00;99398.78;5072545;28;20118;-69
2021/01/01 02:00:59;;;;;;;15.55;9.95;;;;;;;3.08;100.00;99399.88;5058462;28;20174;-70
2021/01/01 02:03:43;;;;;;;13.82;10.10;;;;;;;3.07;100.00;99401.69;5072259;28;20051;-70
2021/01/01 02:06:27;;;;;;;14.90;9.63;;;;;;;3.11;100.00;99399.63;5072903;28;20105;-69
2021/01/01 02:09:13;;;;;;;14.00;10.13;;;;;;;3.10;100.00;99401.44;5073370;28;20086;-70
2021/01/01 02:11:57;;;;;;;14.73;10.13;;;;;;;3.15;100.00;99406.34;5072334;28;20091;-70
2021/01/01 02:14:41;;;;;;;14.93;9.95;;;;;;;3.13;100.00;99403.81;5073112;28;20082;-69
2021/01/01 02:17:25;;;;;;;;;;;;;;;3.09;100.00;99404.16;5072740;28;20094;-70
2021/01/01 02:20:10;;;;;;;14.33;9.90;;;;;;;3.12;100.00;99417.13;5071976;28;19924;-70
2021/01/01 02:22:54;;;;;;;15.25;10.15;;;;;;;3.15;100.00;99416.88;5071882;28;20102;-70
2021/01/01 02:25:38;;;;;;;13.57;9.57;;;;;;;3.10;100.00;99421.63;5073659;28;20066;-70
2021/01/01 02:28:22;;;;;;;14.98;10.55;;;;;;;3.06;100.00;99423.66;5072789;28;20090;-70
2021/01/01 02:31:06;;;;;;;14.30;9.30;;;;;;;3.01;100.00;99417.94;5057739;28;20083;-69
2021/01/01 02:33:51;;;;;;;14.35;9.30;;;;;;;3.03;100.00;99431.00;5072010;28;20070;-70
2021/01/01 02:36:34;;;;;;;14.82;11.13;;;;;;;3.05;100.00;99436.97;5073371;28;20052;-70
2021/01/01 02:39:19;;;;;;;14.40;10.38;;;;;;;3.07;100.00;99435.06;5072782;28;20093;-70
2021/01/01 02:42:04;;;;;;;15.43;10.25;;;;;;;3.06;100.00;99436.00;5072494;28;20051;-70
2021/01/01 02:44:48;;;;;;;14.93;9.93;;;;;;;3.08;100.00;99437.56;5071611;28;20047;-70
2021/01/01 02:47:32;;;;;;;15.55;9.88;;;;;;;3.06;100.00;99431.56;5071432;28;20120;-70
2021/01/01 02:50:17;;;;;;;16.90;10.10;;;;;;;2.99;100.00;99434.78;5100378;28;20440;-70
2021/01/01 02:53:03;;;;;;;18.58;9.40;;;;;;;2.97;100.00;99436.72;5072832;28;20512;-70
2021/01/01 02:55:48;;;;;;;14.27;9.90;;;;;;;2.98;100.00;99438.38;5072761;28;20046;-69
2021/01/01 02:58:33;;;;;;;17.58;10.93;;;;;;;2.98;100.00;99446.28;5071743;28;20043;-71
2021/01/01 03:01:19;;;;;;;14.05;9.68;;;;;;;2.96;100.00;99442.94;5072559;28;20546;-70
2021/01/01 03:04:03;;;;;;;17.90;10.88;;;;;;;2.92;100.00;99436.25;5072425;28;20092;-70
2021/01/01 03:06:48;;;;;;;18.90;11.30;;;;;;;2.92;100.00;99434.41;5085730;28;20459;-70
2021/01/01 03:09:32;;;;;;;17.25;10.32;;;;;;;2.87;100.00;99438.38;5071637;28;20055;-70
2021/01/01 03:12:15;;;;;;;14.48;9.40;;;;;;;2.89;100.00;99444.34;5072463;28;20051;-70
2021/01/01 03:14:59;;;;;;;14.68;9.80;;;;;;;2.89;100.00;99441.72;5071362;28;20154;-70
2021/01/01 03:17:44;;;;;;;14.07;8.77;;;;;;;2.91;100.00;99442.44;5071610;28;20078;-70
2021/01/01 03:20:28;;;;;;;13.25;8.13;;;;;;;2.91;100.00;99439.78;5071563;28;20062;-70
2021/01/01 03:23:12;;;;;;;12.70;8.13;;;;;;;2.84;100.00;99438.59;5072314;28;20055;-70
2021/01/01 03:25:56;;;;;;;10.93;7.18;;;;;;;2.86;100.00;99442.81;5072428;28;20511;-70
2021/01/01 03:28:41;;;;;;;11.35;7.25;;;;;;;2.82;100.00;99443.97;5071479;28;20039;-70
2021/01/01 03:31:25;;;;;;;11.63;7.00;;;;;;;2.78;100.00;99445.16;5072247;28;20051;-70
2021/01/01 03:34:09;;;;;;;9.02;6.70;;;;;;;2.72;100.00;99439.53;5072305;28;20148;-70
2021/01/01 03:36:55;;;;;;;7.93;6.07;;;;;;;2.72;100.00;99442.16;5071275;28;20447;-70
2021/01/01 03:39:39;;;;;;;8.60;5.82;;;;;;;2.68;100.00;99448.59;5072432;28;20140;-70
2021/01/01 03:42:23;;;;;;;9.52;6.22;;;;;;;2.69;100.00;99445.00;5071263;28;20098;-70
2021/01/01 03:45:10;;;;;;;9.65;5.95;;;;;;;2.62;100.00;99449.06;5071037;28;20094;-70
2021/01/01 03:47:54;;;;;;;10.50;5.97;;;;;;;2.58;100.00;99447.59;5071942;28;20487;-70
2021/01/01 03:50:38;;;;;;;;;;;;;;;2.56;100.00;99446.88;5071476;28;20127;-70
2021/01/01 03:53:22;;;;;;;9.65;5.80;;;;;;;2.54;100.00;99454.06;5072944;28;20013;-70
2021/01/01 03:56:06;;;;;;;8.73;5.85;;;;;;;2.44;100.00;99445.97;5074888;28;20101;-70
2021/01/01 03:58:50;;;;;;;8.93;5.78;;;;;;;2.43;100.00;99443.50;5074653;28;20433;-70
2021/01/01 04:01:34;;;;;;;;;;;;;;;2.39;100.00;99447.28;5075325;28;20079;-70
2021/01/01 04:04:18;;;;;;;8.95;6.10;;;;;;;2.46;100.00;99448.53;5074577;28;19966;-70
2021/01/01 04:07:03;;;;;;;8.52;5.50;;;;;;;2.43;100.00;99454.84;5075447;28;20514;-69
2021/01/01 04:09:47;;;;;;;7.63;5.38;;;;;;;2.42;100.00;99454.13;5074667;28;20421;-70
2021/01/01 04:12:31;;;;;;;9.52;6.07;;;;;;;2.36;100.00;99451.97;5075467;28;20102;-70
2021/01/01 04:15:15;;;;;;;9.05;5.95;;;;;;;2.35;100.00;99456.38;5074664;28;20048;-70
2021/01/01 04:17:59;;;;;;;;;;;;;;;2.32;100.00;99459.22;5060734;28;20514;-70
2021/01/01 04:20:43;;;;;;;7.30;5.47;;;;;;;2.26;100.00;99457.03;5075398;28;20433;-70
2021/01/01 04:23:27;;;;;;;8.55;5.38;;;;;;;2.27;100.00;99466.59;5075529;28;20388;-70
2021/01/01 04:26:13;;;;;;;10.32;5.80;;;;;;;2.26;100.00;99462.28;5075610;28;20059;-70
2021/01/01 04:28:57;;;;;;;8.25;5.22;;;;;;;2.20;100.00;99461.91;5102721;28;20087;-70
2021/01/01 04:31:41;;;;;;;7.95;5.25;;;;;;;2.15;100.00;99456.13;5075374;28;20055;-70
2021/01/01 04:34:25;;;;;;;7.68;4.88;;;;;;;2.12;100.00;99457.22;5074090;28;20055;-70
2021/01/01 04:37:09;;;;;;;9.45;5.60;;;;;;;2.08;100.00;99463.63;5075337;28;20047;-70
2021/01/01 04:39:53;;;;;;;8.85;6.07;;;;;;;2.07;100.00;99464.56;5074151;28;20508;-71
2021/01/01 04:42:37;;;;;;;7.93;5.28;;;;;;;2.04;100.00;99470.06;5074145;28;20197;-70
2021/01/01 04:45:21;;;;;;;7.57;4.82;;;;;;;2.06;100.00;99469.97;5074919;28;20194;-70
2021/01/01 04:48:05;;;;;;;;;;;;;;;2.01;100.00;99475.53;5074052;28;20554;-70
2021/01/01 04:50:50;;;;;;;8.70;4.87;;;;;;;2.01;100.00;99472.91;5075114;28;19963;-70
2021/01/01 04:53:39;;;;;;;7.55;4.70;;;;;;;1.98;100.00;99470.47;5074181;28;20547;-70
2021/01/01 04:56:23;;;;;;;8.02;5.40;;;;;;;1.97;100.00;99481.13;5074604;28;20140;-70
2021/01/01 04:59:08;;;;;;;7.88;5.18;;;;;;;1.97;100.00;99481.94;5073853;28;20128;-71
2021/01/01 05:01:52;;;;;;;7.15;4.43;;;;;;;2.01;100.00;99483.44;5073521;28;20428;-70
2021/01/01 05:04:36;;;;;;;8.27;5.50;;;;;;;2.02;100.00;99492.13;5073327;28;20553;-69
2021/01/01 05:07:20;;;;;;;8.38;5.00;;;;;;;2.02;100.00;99494.75;5059050;28;20431;-70
2021/01/01 05:10:04;;;;;;;;;;;;;;;1.97;100.00;99496.91;5075107;28;20051;-70
2021/01/01 05:12:49;;;;;;;8.80;4.87;;;;;;;1.97;100.00;99502.16;5073463;28;20264;-70
2021/01/01 05:15:34;;;;;;;8.52;5.30;;;;;;;1.96;100.00;99498.66;5074572;28;20456;-70
2021/01/01 05:18:23;;;;;;;9.27;5.63;;;;;;;1.95;100.00;99498.81;5074222;28;20086;-70
2021/01/01 05:21:07;;;;;;;8.07;5.43;;;;;;;1.94;100.00;99497.94;5073411;28;20182;-69
2021/01/01 05:23:51;;;;;;;;;;;;;;;1.91;100.00;99498.19;5073594;28;20055;-71
2021/01/01 05:26:35;;;;;;;9.60;5.35;;;;;;;1.94;100.00;99500.56;5072889;28;19981;-70
2021/01/01 05:29:27;;;;;;;7.53;5.03;;;;;;;1.93;100.00;99496.28;5101731;28;20468;-70
2021/01/01 05:32:10;;;;;;;6.57;4.90;;;;;;;1.92;100.00;99505.13;5101418;28;20540;-70
2021/01/01 05:34:58;;;;;;;7.32;4.93;;;;;;;1.89;100.00;99505.34;5073127;28;20109;-71
2021/01/01 05:37:42;;;;;;;7.63;4.90;;;;;;;1.89;100.00;99504.47;5072750;28;20067;-70
2021/01/01 05:40:30;;;;;;;6.82;5.00;;;;;;;1.85;100.00;99503.84;5074044;28;20047;-71
2021/01/01 05:43:23;;;;;;;7.80;4.88;;;;;;;1.87;100.00;99516.91;5058540;28;20067;-70
2021/01/01 05:46:08;;;;;;;7.80;5.38;;;;;;;1.88;100.00;99515.94;5072530;28;20113;-71
2021/01/01 05:48:59;;;;;;;10.25;6.18;;;;;;;1.90;100.00;99516.66;5073589;28;20050;-70
2021/01/01 05:51:43;;;;;;;9.23;5.80;;;;;;;1.85;100.00;99517.00;5073516;28;20039;-70
2021/01/01 05:54:27;;;;;;;8.82;5.63;;;;;;;1.77;100.00;99529.00;5072738;28;20607;-70
2021/01/01 05:57:13;;;;;;;7.75;5.28;;;;;;;1.67;100.00;99536.66;5073466;28;20094;-70
2021/01/01 05:59:57;;;;;;;9.13;6.32;;;;;;;1.63;100.00;99536.97;5072353;28;20136;-70
2021/01/01 06:02:41;;;;;;;;;;;;;;;1.65;100.00;99543.81;5072824;28;20056;-71
2021/01/01 06:05:28;;;;;;;9.50;6.20;;;;;;;1.69;100.00;99542.69;5072259;28;20366;-70
2021/01/01 06:08:13;;;;;;;10.65;6.72;;;;;;;1.70;100.00;99548.75;5073047;28;20086;-69
2021/01/01 06:11:03;;;;;;;11.27;6.43;;;;;;;1.76;100.00;99545.72;5072233;28;20046;-70
2021/01/01 06:13:50;;;;;;;9.73;6.53;;;;;;;1.81;100.00;99547.06;5100831;28;20047;-71
2021/01/01 06:17:09;;;;;;;10.00;6.20;;;;;;;1.89;100.00;99552.66;5071557;28;20067;-70
2021/01/01 06:19:57;;;;;;;10.10;5.97;;;;;;;1.87;100.00;99557.13;5073297;28;20123;-70
2021/01/01 06:23:01;;;;;;;9.20;6.63;;;;;;;1.88;100.00;99561.44;5072036;28;20047;-71
2021/01/01 06:25:45;;;;;;;9.85;6.47;;;;;;;1.84;100.00;99570.50;5071971;28;20562;-71
2021/01/01 06:28:30;;;;;;;10.65;6.90;;;;;;;1.86;100.00;99562.53;5071876;28;20040;-70
2021/01/01 06:31:15;;;;;;;10.52;6.65;;;;;;;1.78;100.00;99570.91;5057844;28;20141;-70
2021/01/01 06:33:58;;;;;;;12.35;7.13;;;;;;;1.75;100.00;99572.94;5072102;28;20113;-71
2021/01/01 06:36:42;;;;;;;11.02;6.85;;;;;;;1.81;100.00;99575.97;5072002;28;20139;-71
2021/01/01 06:39:43;;;;;;;10.77;6.82;;;;;;;1.84;100.00;99573.13;5072874;28;20122;-70
2021/01/01 06:42:54;;;;;;;10.40;6.70;;;;;;;1.83;100.00;99578.47;5072839;28;20475;-70
2021/01/01 06:45:45;;;;;;;8.75;5.82;;;;;;;1.84;100.00;99591.53;5071999;28;20452;-70
2021/01/01 06:48:30;;;;;;;11.35;6.85;;;;;;;1.85;100.00;99595.84;5071553;28;20066;-69
2021/01/01 06:51:16;;;;;;;13.30;6.57;;;;;;;1.90;100.00;99600.78;5072944;28;20114;-71
2021/01/01 06:54:10;;;;;;;11.38;6.68;;;;;;;1.90;100.00;99596.38;5072858;28;20052;-71
2021/01/01 06:57:03;;;;;;;10.30;6.72;;;;;;;1.88;100.00;99603.50;5071588;28;20047;-70
2021/01/01 06:59:47;;;;;;;10.18;6.47;;;;;;;1.85;100.00;99601.09;5072824;28;20508;-71
2021/01/01 07:02:32;;;;;;;11.32;7.20;;;;;;;1.87;100.00;99596.56;5071793;28;20090;-71
2021/01/01 07:05:24;;;;;;;13.20;7.80;;;;;;;1.89;100.00;99599.94;5057295;28;20051;-71
2021/01/01 07:08:09;;;;;;;11.65;6.72;;;;;;;1.89;100.00;99599.09;5072316;28;20051;-71
2021/01/01 07:10:53;;;;;;;10.60;6.95;;;;;;;1.94;100.00;99608.34;5072711;28;20047;-71
2021/01/01 07:13:54;;;;;;;10.68;6.78;;;;;;;1.92;100.00;99610.22;5072908;28;20055;-70
2021/01/01 07:16:40;;;;;;;11.90;7.20;;;;;;;1.93;100.00;99619.81;5072749;28;20081;-71
2021/01/01 07:19:25;;;;;;;11.70;7.32;;;;;;;1.99;100.00;99621.97;5071352;28;20487;-71
2021/01/01 07:22:09;;;;;;;12.43;7.47;;;;;;;1.95;100.00;99615.28;5072581;28;20047;-70
2021/01/01 07:24:53;;;;;;;11.30;7.57;;;;;;;1.95;100.00;99615.28;5072793;28;20047;-71
2021/01/01 07:27:37;;;;;;;;;;;;;;;1.99;100.00;99613.28;5071622;28;20048;-70
2021/01/01 07:30:22;;;;;;;12.25;7.45;;;;;;;1.92;100.00;99609.38;5076396;28;19927;-71
2021/01/01 07:33:06;;;;;;;12.38;7.22;;;;;;;1.90;100.00;99606.88;5076312;28;20051;-71
2021/01/01 07:35:58;;;;;;;13.10;7.82;;;;;;;1.85;100.00;99619.47;5076275;28;20043;-71
2021/01/01 07:38:47;;;;;;;14.70;8.23;;;;;;;1.87;100.00;99617.59;5075532;28;20471;-71
2021/01/01 07:41:31;;;;;;;14.20;8.50;;;;;;;1.91;100.00;99632.22;5075112;28;20516;-71
2021/01/01 07:44:18;;;;;;;13.18;7.82;;;;;;;1.94;100.00;99629.38;5076442;28;20456;-70
2021/01/01 07:47:03;;;;;;;11.30;7.10;;;;;;;2.00;100.00;99634.22;5076048;28;20043;-70
2021/01/01 07:49:46;;;;;;;12.90;8.07;;;;;;;2.06;100.00;99632.94;5103728;28;20102;-70
2021/01/01 07:52:30;;;;;;;14.77;9.20;;;;;;;2.01;100.00;99635.88;5076160;28;20050;-71
2021/01/01 07:55:20;;;;;;;16.70;9.13;;;;;;;2.10;100.00;99634.41;5074882;28;20519;-71
2021/01/01 07:58:05;;;;;;;13.50;8.45;;;;;;;2.14;100.00;99647.22;5074731;28;20039;-71
2021/01/01 08:00:49;;;;;;;14.93;8.82;;;;;;;2.14;100.00;99651.63;5075762;28;20480;-71
2021/01/01 08:03:34;;;;;;;13.93;8.75;;;;;;;2.16;100.00;99649.75;5074937;28;20194;-70
2021/01/01 08:06:19;;;;;;;15.63;9.20;;;;;;;2.17;100.00;99660.16;5074530;28;20515;-70
2021/01/01 08:09:04;;;;;;;14.35;8.88;;;;;;;2.18;100.00;99653.94;5046584;28;20077;-71
2021/01/01 08:11:48;;;;;;;17.58;9.32;;;;;;;2.25;100.00;99660.47;5074491;28;20047;-71
2021/01/01 08:14:32;;;;;;;15.98;9.80;;;;;;;2.21;100.00;99660.78;5074747;28;20098;-70
2021/01/01 08:17:31;;;;;;;14.98;8.90;;;;;;;2.27;100.00;99663.81;5075521;28;20051;-70
2021/01/01 08:20:16;;;;;;;19.00;9.18;;;;;;;2.33;100.00;99668.66;5075356;28;20561;-71
2021/01/01 08:23:02;;;;;;;15.07;9.10;;;;;;;2.32;100.00;99677.50;5074316;28;20417;-71
2021/01/01 08:25:47;;;;;;;14.15;8.10;;;;;;;2.35;100.00;99676.44;5060459;28;20078;-69
2021/01/01 08:28:32;;;;;;;20.60;9.77;;;;;;;2.38;100.00;99671.78;5074372;28;20102;-71
2021/01/01 08:31:18;;;;;;;15.60;9.82;;;;;;;2.41;100.00;99676.88;5075615;28;20056;-70
2021/01/01 08:34:03;;;;;;;16.55;9.77;;;;;;;2.43;100.00;99673.16;5060296;28;20149;-69
2021/01/01 08:36:47;;;;;;;16.60;9.52;;;;;;;2.49;100.00;99678.00;5075078;28;20043;-71
2021/01/01 08:39:31;;;;;;;18.27;10.77;;;;;;;2.58;100.00;99684.38;5074772;28;20538;-71
2021/01/01 08:42:21;;;;;;;17.15;9.80;;;;;;;2.64;100.00;99676.91;5075521;28;20078;-70
2021/01/01 08:45:07;;;;;;;16.08;10.05;;;;;;;2.75;100.00;99681.41;5074094;28;20059;-70
2021/01/01 08:47:51;;;;;;;17.63;10.50;;;;;;;2.86;100.00;99684.13;5074715;28;20566;-71
2021/01/01 08:50:41;;;;;;;;;;;;;;;3.08;100.00;99685.09;5074494;28;20056;-71
2021/01/01 08:53:25;;;;;;;17.88;9.93;;;;;;;3.15;100.00;99685.47;5106930;23;19967;-70
2021/01/01 08:56:15;;;;;;;14.73;9.48;;;;;;;3.31;100.00;99696.56;5034014;28;20052;-70
2021/01/01 08:59:09;;;;;;;13.85;9.00;;;;;;;3.58;100.00;99694.53;5033737;28;20087;-71
2021/01/01 09:01:53;;;;;;;15.68;9.35;;;;;;;3.69;100.00;99697.19;5034904;28;20521;-70
2021/01/01 09:04:40;;;;;;;15.65;9.95;;;;;;;3.77;100.00;99698.28;5033829;28;20145;-70
2021/01/01 09:07:25;;;;;;;15.20;9.60;;;;;;;3.89;100.00;99699.19;5034670;28;20055;-70
2021/01/01 09:10:16;;;;;;;15.75;10.07;;;;;;;4.07;100.00;99695.97;5033475;28;20095;-70
2021/01/01 09:13:11;;;;;;;15.75;9.35;;;;;;;5.40;93.50;99693.09;5033331;28;20047;-70
2021/01/01 09:16:01;;;;;;;14.90;8.95;;;;;;;6.57;84.11;99700.72;5033846;28;20049;-70
2021/01/01 09:18:45;;;;;;;13.80;8.57;;;;;;;8.00;76.84;99695.50;5033517;28;20095;-70
2021/01/01 09:21:29;;;;;;;13.32;8.80;;;;;;;10.30;67.13;99693.06;5034374;28;20592;-70
2021/01/01 09:24:23;;;;;;;11.52;7.13;;;;;;;10.73;60.69;99686.81;5033254;28;20064;-71
2021/01/01 09:27:07;;;;;;;12.88;8.13;;;;;;;11.21;60.37;99689.69;5033290;28;20048;-71
2021/01/01 09:30:02;;;;;;;12.35;8.77;;;;;;;11.60;57.32;99693.50;5033362;28;20121;-71
2021/01/01 09:32:48;;;;;;;11.63;7.80;;;;;;;9.96;61.39;99711.72;5034273;28;20047;-71
2021/01/01 09:35:32;;;;;;;11.98;8.40;;;;;;;9.81;64.50;99706.09;5032969;28;20505;-70
2021/01/01 09:38:16;;;;;;;13.07;8.32;;;;;;;10.15;62.31;99704.44;5034233;28;20045;-71
2021/01/01 09:41:00;;;;;;;13.77;8.80;;;;;;;10.59;61.59;99698.94;5019123;28;20063;-70
2021/01/01 09:43:44;;;;;;;;;;;;;;;10.88;58.95;99706.56;5033354;28;20092;-71
2021/01/01 09:46:28;;;;;;;12.57;6.97;;;;;;;11.36;57.57;99704.91;5032720;28;19924;-71
2021/01/01 09:49:12;;;;;;;12.57;8.07;;;;;;;11.18;58.27;99704.19;5032714;28;20521;-69
2021/01/01 09:51:56;;;;;;;11.27;7.72;;;;;;;12.22;54.98;99707.06;5032591;28;20083;-70
2021/01/01 09:54:40;;;;;;;13.75;8.07;;;;;;;12.81;52.33;99703.91;5032518;28;20520;-70
2021/01/01 09:57:24;;;;;;;12.20;7.85;;;;;;;13.84;50.47;99707.09;5033722;28;20051;-71
2021/01/01 10:00:10;;;;;;;13.55;8.23;;;;;;;14.32;49.83;99707.59;5032487;28;20047;-71
2021/01/01 10:02:54;;;;;;;11.77;8.25;;;;;;;13.42;51.78;99714.72;5032638;28;20390;-71
2021/01/01 10:05:38;;;;;;;13.52;8.98;;;;;;;12.21;54.38;99712.56;5033431;28;20421;-70
2021/01/01 10:08:22;;;;;;;14.82;10.77;;;;;;;11.90;56.59;99720.38;5033565;28;20091;-70
2021/01/01 10:11:11;;;;;;;15.10;10.57;;;;;;;11.54;56.74;99718.97;5032367;28;20049;-71
2021/01/01 10:13:55;;;;;;;14.90;10.68;;;;;;;11.46;59.79;99712.78;5033450;28;20095;-71
2021/01/01 10:16:39;;;;;;;14.38;10.23;;;;;;;11.77;57.34;99716.56;5033300;28;20418;-71
2021/01/01 10:19:23;;;;;;;16.40;10.52;;;;;;;13.33;52.94;99713.09;5032199;28;20056;-71
2021/01/01 10:22:08;;;;;;;12.80;9.68;;;;;;;14.74;48.80;99710.53;5032120;28;20052;-70
2021/01/01 10:24:52;;;;;;;13.65;9.93;;;;;;;16.00;44.44;99706.38;5033288;28;20068;-71
2021/01/01 10:27:36;;;;;;;14.48;10.02;;;;;;;17.69;41.37;99715.59;5033216;28;20052;-70
2021/01/01 10:30:21;;;;;;;14.10;10.77;;;;;;;17.88;39.87;99706.72;5031998;28;20151;-70
2021/01/01 10:33:05;;;;;;;12.07;9.63;;;;;;;17.26;42.30;99705.22;5005024;28;20171;-71
2021/01/01 10:35:49;;;;;;;15.68;10.80;;;;;;;15.57;44.30;99713.72;5032012;28;20524;-71
2021/01/01 10:38:34;;;;;;;13.00;10.50;;;;;;;13.79;49.03;99718.34;5032214;28;20131;-71
2021/01/01 10:41:18;;;;;;;14.10;9.98;;;;;;;13.02;50.11;99718.44;5032869;28;20067;-71
2021/01/01 10:44:03;;;;;;;12.30;9.02;;;;;;;11.16;54.80;99711.50;5033038;28;20091;-70
2021/01/01 10:46:54;;;;;;;15.07;10.07;;;;;;;10.43;59.69;99714.81;5033198;28;20084;-71
2021/01/01 10:49:38;;;;;;;12.88;9.40;;;;;;;10.60;57.62;99713.94;5032173;28;20187;-70
2021/01/01 10:52:22;;;;;;;12.85;9.25;;;;;;;10.75;58.16;99712.31;5032733;28;20425;-71
2021/01/01 10:55:08;;;;;;;17.13;10.60;;;;;;;10.08;59.84;99710.56;5031546;28;20072;-68
2021/01/01 10:57:52;;;;;;;14.13;9.65;;;;;;;8.46;64.79;99724.78;5032623;28;20053;-70
2021/01/01 11:00:36;;;;;;;15.45;10.57;;;;;;;7.95;68.33;99720.81;5031833;28;20056;-69
2021/01/01 11:03:21;;;;;;;18.63;11.05;;;;;;;7.80;69.84;99727.50;5031560;28;20047;-70
2021/01/01 11:06:07;;;;;;;16.40;11.48;;;;;;;9.24;66.06;99708.34;5032052;28;20075;-70
2021/01/01 11:08:51;;;;;;;16.33;10.25;;;;;;;11.57;58.52;99705.31;5031662;28;20090;-70
2021/01/01 11:11:35;;;;;;;;;;;;;;;13.28;51.89;99694.88;5033160;28;20129;-70
2021/01/01 11:14:26;;;;;;;15.70;11.10;;;;;;;12.95;52.34;99701.41;5031468;28;19923;-70
2021/01/01 12:27:08;;;;;;;13.57;8.88;;;;;;;6.79;75.21;99689.94;5035615;28;20048;-70
2021/01/01 12:29:52;;;;;;;14.63;8.25;;;;;;;6.86;75.55;99680.50;5034183;28;20509;-70
2021/01/01 12:32:39;;;;;;;;;;;;;;;6.91;75.68;99689.72;5035866;28;20084;-71
2021/01/01 12:35:24;;;;;;;14.63;9.13;;;;;;;6.97;76.05;99686.50;5034500;28;20159;-70
2021/01/01 12:38:08;;;;;;;14.38;9.30;;;;;;;6.76;75.41;99691.03;5035582;28;20111;-70
2021/01/01 12:40:52;;;;;;;13.82;8.02;;;;;;;6.41;76.91;99687.97;5035313;28;20048;-70
2021/01/01 12:43:37;;;;;;;14.68;9.27;;;;;;;6.37;78.03;99691.84;5033983;28;20505;-70
2021/01/01 12:46:21;;;;;;;12.95;9.38;;;;;;;6.36;77.89;99692.81;5035001;28;20068;-70
2021/01/01 12:49:04;;;;;;;13.65;8.68;;;;;;;6.20;78.76;99692.47;5034133;28;20084;-70
2021/01/01 12:51:49;;;;;;;14.40;8.95;;;;;;;6.15;78.65;99694.66;5034846;28;20072;-70
2021/01/01 12:54:34;;;;;;;14.55;8.68;;;;;;;6.07;78.25;99702.38;5034623;28;20096;-70
2021/01/01 12:57:18;;;;;;;12.95;8.05;;;;;;;5.98;77.28;99700.56;5034801;28;20111;-70
2021/01/01 13:00:03;;;;;;;13.98;8.35;;;;;;;6.01;78.36;99702.06;5034179;28;20119;-70
2021/01/01 13:02:47;;;;;;;12.65;8.15;;;;;;;6.00;79.42;99701.25;5033641;28;20047;-70
2021/01/01 13:05:31;;;;;;;11.65;8.05;;;;;;;6.08;80.23;99698.81;5019546;28;20075;-70
2021/01/01 13:08:15;;;;;;;13.45;8.55;;;;;;;6.20;81.18;99702.19;5034772;28;20056;-70
2021/01/01 13:10:59;;;;;;;13.60;7.97;;;;;;;6.47;79.69;99708.63;5034565;28;20436;-70
2021/01/01 13:13:43;;;;;;;13.00;8.02;;;;;;;6.94;79.13;99707.97;5034395;28;20560;-70
2021/01/01 13:16:28;;;;;;;12.27;7.65;;;;;;;7.48;77.65;99708.34;5034407;28;20167;-70
2021/01/01 13:19:12;;;;;;;11.43;7.63;;;;;;;7.83;72.24;99706.84;5033298;28;20418;-69
2021/01/01 13:21:58;;;;;;;12.27;7.85;;;;;;;8.07;68.15;99709.06;5033585;28;20103;-71
2021/01/01 13:24:43;;;;;;;18.05;11.30;;;;;;;8.16;68.51;99705.53;5034296;28;20390;-71
2021/01/01 13:27:27;;;;;;;11.80;7.25;;;;;;;8.20;68.74;99709.63;5033414;28;20163;-68
2021/01/01 13:30:13;;;;;;;10.30;7.40;;;;;;;8.06;67.54;99712.69;5033326;28;20092;-70
2021/01/01 13:32:57;;;;;;;11.85;6.88;;;;;;;7.87;68.22;99712.69;5019037;28;20107;-71
2021/01/01 13:35:44;;;;;;;10.02;6.88;;;;;;;7.55;68.28;99712.97;5034566;28;20406;-71
2021/01/01 13:38:28;;;;;;;8.35;5.93;;;;;;;7.21;70.55;99721.47;5034523;28;20063;-69
2021/01/01 13:41:13;;;;;;;7.35;5.13;;;;;;;6.97;71.01;99720.94;5034104;28;20481;-70
2021/01/01 13:43:57;;;;;;;5.97;4.50;;;;;;;6.83;72.47;99731.94;5034046;28;20068;-70
2021/01/01 13:46:41;;;;;;;5.22;4.13;;;;;;;6.52;73.05;99732.06;5033055;28;20052;-70
2021/01/01 13:49:26;;;;;;;6.63;4.88;;;;;;;6.21;75.78;99730.34;5033053;28;20052;-71
2021/01/01 13:52:11;;;;;;;5.63;4.10;;;;;;;6.08;76.28;99743.78;5034122;28;20095;-70
2021/01/01 13:54:56;;;;;;;5.55;4.20;;;;;;;5.94;77.45;99738.78;5033649;28;20382;-71
2021/01/01 13:57:40;;;;;;;6.18;4.20;;;;;;;5.79;78.87;99748.00;5033857;28;20076;-71
2021/01/01 14:00:24;;;;;;;7.55;4.78;;;;;;;5.68;80.34;99748.03;5032574;28;20079;-71
2021/01/01 14:03:08;;;;;;;6.05;4.75;;;;;;;5.58;82.26;99748.91;5004928;28;20052;-71